Time;durP1;ratioP1;P1;durP2;ratioP2;P2;SDS_P1;SDS_P2;PMS_P1;PMS_P2;Temp;Humidity;BMP_temperature;BMP_pressure;BME280_temperature;BME280_humidity;BME280_pressure;Samples;Min_cycle;Max_cycle;Signal;HPM_P1;HPM_P2
2022/03/16 00:02:20;;;;;;;22.52;16.00;;;;;;;1.64;100.00;101409.34;5031209;28;20085;-72
2022/03/16 00:04:55;;;;;;;24.40;16.75;;;;;;;1.93;100.00;101443.66;5031217;28;20036;-72
2022/03/16 00:07:22;;;;;;;24.70;16.65;;;;;;;2.29;100.00;101432.22;5031560;28;20025;-72
2022/03/16 00:09:48;;;;;;;23.85;16.33;;;;;;;2.75;100.00;101411.75;5013691;28;20108;-71
2022/03/16 00:12:14;;;;;;;24.65;16.23;;;;;;;2.55;100.00;101392.81;5030876;28;20030;-71
2022/03/16 00:14:40;;;;;;;28.00;17.13;;;;;;;2.63;100.00;101414.75;5030931;28;20029;-71
2022/03/16 00:17:07;;;;;;;24.63;17.70;;;;;;;2.41;100.00;101401.59;5030973;28;20099;-69
2022/03/16 00:19:33;;;;;;;28.40;18.65;;;;;;;2.32;100.00;101381.25;5030848;28;20033;-71
2022/03/16 00:21:59;;;;;;;33.90;20.83;;;;;;;2.05;100.00;101378.00;5031232;28;20553;-71
2022/03/16 00:24:26;;;;;;;24.08;17.25;;;;;;;2.45;100.00;101395.88;5030730;28;20041;-72
2022/03/16 00:26:51;;;;;;;21.50;16.10;;;;;;;1.88;100.00;101426.78;5030715;28;20037;-71
2022/03/16 00:29:17;;;;;;;25.35;17.13;;;;;;;2.52;100.00;101431.19;5030812;28;20018;-72
2022/03/16 00:31:42;;;;;;;24.58;17.08;;;;;;;2.45;100.00;101418.44;5030698;28;20033;-71
2022/03/16 00:34:08;;;;;;;23.40;16.65;;;;;;;2.32;100.00;101398.81;5030921;28;20068;-71
2022/03/16 00:36:33;;;;;;;22.05;16.52;;;;;;;2.42;100.00;101395.75;5031104;28;20555;-72
2022/03/16 00:38:59;;;;;;;25.65;16.95;;;;;;;2.33;100.00;101370.44;5035071;28;20025;-72
2022/03/16 00:41:24;;;;;;;24.80;17.70;;;;;;;2.67;100.00;101417.38;5035217;28;20072;-72
2022/03/16 00:43:51;;;;;;;24.05;16.83;;;;;;;2.32;100.00;101359.53;5034988;28;20029;-71
2022/03/16 00:46:17;;;;;;;27.58;18.15;;;;;;;2.36;100.00;101381.41;5034750;28;20096;-71
2022/03/16 00:48:42;;;;;;;29.88;18.25;;;;;;;2.67;100.00;101393.13;5034908;28;20025;-71
2022/03/16 00:51:09;;;;;;;26.20;18.70;;;;;;;2.74;100.00;101384.94;5034807;28;20025;-71
2022/03/16 00:53:35;;;;;;;28.98;19.15;;;;;;;2.80;100.00;101390.13;5034870;28;20464;-72
2022/03/16 00:56:03;;;;;;;33.25;21.10;;;;;;;2.48;100.00;101384.25;5034377;28;20128;-72
2022/03/16 00:58:29;;;;;;;65.07;36.30;;;;;;;2.58;100.00;101357.72;5034586;28;20032;-72
2022/03/16 01:03:30;;;;;;;43.90;28.63;;;;;;;2.57;100.00;101353.53;3895645;23;10000568;-72
2022/03/16 01:05:55;;;;;;;41.75;28.02;;;;;;;2.57;100.00;101330.94;5074410;28;20044;-72
2022/03/16 01:08:20;;;;;;;44.58;29.90;;;;;;;2.40;100.00;101322.97;5056067;28;20461;-72
2022/03/16 01:10:46;;;;;;;36.20;24.20;;;;;;;1.99;100.00;101313.47;5054442;28;20033;-72
2022/03/16 01:13:11;;;;;;;31.73;21.95;;;;;;;2.44;100.00;101339.81;5054580;28;20033;-72
2022/03/16 01:15:37;;;;;;;37.90;24.25;;;;;;;2.30;100.00;101346.09;5054470;28;20573;-72
2022/03/16 01:18:02;;;;;;;32.10;22.83;;;;;;;2.21;100.00;101325.81;5068476;28;20031;-72
2022/03/16 01:20:28;;;;;;;29.05;20.33;;;;;;;2.33;100.00;101350.38;5073685;28;20036;-72
2022/03/16 01:22:53;;;;;;;31.98;19.98;;;;;;;1.84;100.00;101329.75;5074126;28;20028;-71
2022/03/16 01:25:19;;;;;;;32.78;21.67;;;;;;;2.10;100.00;101327.16;5073836;28;20028;-67
2022/03/16 01:27:44;;;;;;;34.17;21.42;;;;;;;2.07;100.00;101348.78;5055746;28;20035;-71
2022/03/16 01:30:13;;;;;;;35.08;21.17;;;;;;;2.39;100.00;101308.75;5056355;28;20025;-71
2022/03/16 01:32:39;;;;;;;35.30;22.00;;;;;;;2.36;100.00;101333.72;5073676;28;20466;-71
2022/03/16 01:35:05;;;;;;;36.67;22.90;;;;;;;1.83;100.00;101308.84;5073768;28;20035;-71
2022/03/16 01:37:30;;;;;;;61.17;35.08;;;;;;;2.06;100.00;101339.59;5073755;28;20058;-71
2022/03/16 01:39:56;;;;;;;51.60;33.25;;;;;;;1.99;100.00;101328.53;5073523;28;20040;-71
2022/03/16 01:42:22;;;;;;;48.17;29.60;;;;;;;1.83;100.00;101311.34;5073777;28;20040;-71
2022/03/16 01:44:50;;;;;;;33.97;24.55;;;;;;;1.93;100.00;101342.53;5055744;28;20111;-71
2022/03/16 01:47:17;;;;;;;34.80;22.85;;;;;;;2.02;100.00;101310.22;5073522;28;20032;-71
2022/03/16 01:49:44;;;;;;;27.13;18.65;;;;;;;1.83;100.00;101302.97;5054157;28;20044;-71
2022/03/16 01:52:11;;;;;;;29.40;19.27;;;;;;;1.73;100.00;101331.94;5067010;28;20116;-71
2022/03/16 01:54:39;;;;;;;28.90;19.58;;;;;;;1.94;100.00;101319.19;5072964;28;20089;-70
2022/03/16 01:57:05;;;;;;;27.85;18.83;;;;;;;2.01;100.00;101308.50;5073725;28;20020;-71
2022/03/16 01:59:31;;;;;;;27.38;19.35;;;;;;;2.01;100.00;101300.97;5073332;28;20375;-70
2022/03/16 02:01:57;;;;;;;25.20;18.55;;;;;;;2.08;100.00;101305.38;5073425;28;20056;-71
2022/03/16 02:04:22;;;;;;;29.88;19.27;;;;;;;1.66;100.00;101300.00;5073447;28;20489;-71
2022/03/16 02:06:48;;;;;;;31.27;19.13;;;;;;;1.41;100.00;101295.03;5073061;28;20036;-71
2022/03/16 02:09:14;;;;;;;27.92;18.73;;;;;;;0.93;100.00;101289.41;5055236;28;20028;-71
2022/03/16 02:11:40;;;;;;;26.25;18.48;;;;;;;1.76;100.00;101292.75;5073361;28;20056;-71
2022/03/16 02:14:05;;;;;;;25.30;18.48;;;;;;;1.76;100.00;101315.31;5073052;28;20098;-71
2022/03/16 02:16:34;;;;;;;28.58;18.88;;;;;;;2.00;100.00;101324.38;5073271;28;20032;-71
2022/03/16 02:19:00;;;;;;;27.83;19.20;;;;;;;1.72;100.00;101327.75;5073026;28;20040;-71
2022/03/16 02:21:28;;;;;;;26.98;17.65;;;;;;;2.03;100.00;101301.88;5072729;28;20032;-71
2022/03/16 02:23:53;;;;;;;28.17;18.55;;;;;;;1.64;100.00;101287.41;5054597;28;20028;-71
2022/03/16 02:26:25;;;;;;;26.70;18.77;;;;;;;1.89;100.00;101319.03;5073118;28;20033;-71
2022/03/16 02:28:51;;;;;;;29.05;19.35;;;;;;;1.83;100.00;101318.84;5071854;28;20024;-68
2022/03/16 02:31:17;;;;;;;28.85;19.23;;;;;;;2.13;100.00;101272.06;5072757;28;20551;-72
2022/03/16 02:33:43;;;;;;;37.40;18.55;;;;;;;2.20;100.00;101278.94;5072907;28;20025;-72
2022/03/16 02:36:09;;;;;;;29.15;19.08;;;;;;;2.01;100.00;101245.81;5069647;28;20025;-71
2022/03/16 02:38:35;;;;;;;29.92;19.98;;;;;;;1.92;100.00;101289.06;5052306;28;20029;-72
2022/03/16 02:41:00;;;;;;;27.92;19.73;;;;;;;1.66;100.00;101282.44;5052280;28;20467;-71
2022/03/16 02:43:27;;;;;;;27.70;19.52;;;;;;;1.77;100.00;101246.84;5052418;28;20111;-71
2022/03/16 02:45:53;;;;;;;31.90;20.98;;;;;;;2.25;100.00;101269.03;5052619;28;20548;-72
2022/03/16 02:48:18;;;;;;;31.95;21.27;;;;;;;2.09;100.00;101264.41;5052573;28;20033;-71
2022/03/16 02:50:44;;;;;;;33.03;21.50;;;;;;;1.92;100.00;101265.63;5052425;28;20407;-71
2022/03/16 02:53:09;;;;;;;38.13;22.38;;;;;;;1.82;100.00;101268.69;5051896;28;20025;-70
2022/03/16 02:55:35;;;;;;;31.35;21.02;;;;;;;2.05;100.00;101272.66;5052436;28;20033;-71
2022/03/16 02:58:01;;;;;;;30.15;20.65;;;;;;;1.80;100.00;101252.75;5052371;28;20037;-71
2022/03/16 03:00:26;;;;;;;29.30;19.80;;;;;;;2.08;100.00;101273.59;5051767;28;20063;-68
2022/03/16 03:02:54;;;;;;;27.33;19.88;;;;;;;2.13;100.00;101266.19;5067061;28;20040;-71
2022/03/16 03:05:19;;;;;;;29.50;21.25;;;;;;;1.59;100.00;101265.53;5071936;28;20036;-72
2022/03/16 03:07:44;;;;;;;31.77;22.25;;;;;;;1.70;100.00;101266.69;5071495;28;20055;-71
2022/03/16 03:10:10;;;;;;;33.80;21.77;;;;;;;2.04;100.00;101259.28;5054186;28;20034;-72
2022/03/16 03:12:35;;;;;;;33.35;22.55;;;;;;;1.79;100.00;101211.81;5072003;28;20417;-72
2022/03/16 03:15:03;;;;;;;33.13;21.60;;;;;;;1.14;100.00;101234.13;5071925;28;20451;-71
2022/03/16 03:17:29;;;;;;;31.08;21.08;;;;;;;1.40;100.00;101231.59;5071792;28;20024;-71
2022/03/16 03:19:54;;;;;;;27.45;19.95;;;;;;;1.40;100.00;101253.28;5071951;28;20153;-72
2022/03/16 03:22:20;;;;;;;25.83;19.52;;;;;;;1.03;100.00;101213.75;5071392;28;20029;-71
2022/03/16 03:24:45;;;;;;;29.67;20.08;;;;;;;1.69;100.00;101257.47;5071539;28;20032;-70
2022/03/16 03:27:11;;;;;;;27.05;19.35;;;;;;;0.95;100.00;101206.84;5071678;28;20029;-70
2022/03/16 03:29:37;;;;;;;27.00;19.80;;;;;;;0.95;100.00;101219.38;5071695;28;20024;-71
2022/03/16 03:32:02;;;;;;;26.52;19.00;;;;;;;1.20;100.00;101262.72;5071896;28;20032;-71
2022/03/16 03:34:28;;;;;;;28.75;20.25;;;;;;;1.42;100.00;101276.72;5053659;28;20398;-66
2022/03/16 03:36:53;;;;;;;29.65;20.38;;;;;;;1.76;100.00;101251.84;5071668;28;20489;-71
2022/03/16 03:39:19;;;;;;;27.52;19.52;;;;;;;1.68;100.00;101256.59;5049097;28;20036;-71
2022/03/16 03:41:44;;;;;;;27.60;19.63;;;;;;;1.57;100.00;101219.53;5051940;28;20093;-72
2022/03/16 03:44:10;;;;;;;24.65;18.90;;;;;;;1.98;100.00;101235.72;5051101;28;20040;-71
2022/03/16 03:46:35;;;;;;;27.05;19.30;;;;;;;2.16;100.00;101241.22;5051542;28;20505;-71
2022/03/16 03:49:01;;;;;;;28.70;21.48;;;;;;;1.20;100.00;101180.09;5050073;28;20037;-71
2022/03/16 03:51:26;;;;;;;28.95;21.77;;;;;;;1.87;100.00;101194.47;5051106;28;20151;-71
2022/03/16 03:53:51;;;;;;;29.33;21.75;;;;;;;1.61;100.00;101213.81;5051245;28;20461;-71
2022/03/16 03:56:17;;;;;;;32.15;22.33;;;;;;;1.57;100.00;101242.09;5051436;28;20410;-71
2022/03/16 03:58:43;;;;;;;31.40;22.70;;;;;;;2.07;100.00;101191.66;5051523;28;20068;-71
2022/03/16 04:01:09;;;;;;;34.25;23.98;;;;;;;1.41;100.00;101192.34;5051084;28;20051;-71
2022/03/16 04:03:34;;;;;;;36.47;25.05;;;;;;;1.44;100.00;101210.84;5050765;28;20049;-71
2022/03/16 04:06:00;;;;;;;42.50;26.98;;;;;;;1.45;100.00;101222.53;5051067;28;20025;-71
2022/03/16 04:08:26;;;;;;;38.20;25.98;;;;;;;1.21;100.00;101224.34;5051196;28;20029;-71
2022/03/16 04:10:51;;;;;;;36.38;25.00;;;;;;;1.43;100.00;101191.59;5033266;28;20099;-71
2022/03/16 04:13:16;;;;;;;33.70;24.55;;;;;;;1.37;100.00;101193.06;5032131;28;20037;-71
2022/03/16 04:15:42;;;;;;;37.42;25.58;;;;;;;1.94;100.00;101234.75;5050751;28;20037;-73
2022/03/16 04:18:07;;;;;;;34.47;24.58;;;;;;;1.89;100.00;101203.72;5050719;28;20032;-71
2022/03/16 04:20:33;;;;;;;34.17;24.42;;;;;;;2.02;100.00;101227.47;5055196;28;20025;-71
2022/03/16 04:22:58;;;;;;;31.02;23.52;;;;;;;1.80;100.00;101200.13;5071245;28;20047;-72
2022/03/16 04:25:24;;;;;;;36.20;25.67;;;;;;;1.68;100.00;101240.75;5061517;28;20505;-71
2022/03/16 04:27:49;;;;;;;37.45;25.63;;;;;;;1.73;100.00;101227.53;5059002;28;20032;-72
2022/03/16 04:30:15;;;;;;;38.22;27.48;;;;;;;1.69;100.00;101234.91;5057957;28;20070;-72
2022/03/16 04:32:40;;;;;;;41.13;27.83;;;;;;;1.96;100.00;101228.13;5070567;28;20028;-71
2022/03/16 04:35:06;;;;;;;40.35;27.75;;;;;;;1.61;100.00;101227.19;5052281;28;20041;-69
2022/03/16 04:37:32;;;;;;;38.72;26.15;;;;;;;1.76;100.00;101209.22;5070939;28;20071;-72
2022/03/16 04:39:58;;;;;;;36.17;25.15;;;;;;;1.64;100.00;101212.22;5053322;28;20387;-74
2022/03/16 04:42:24;;;;;;;33.42;24.15;;;;;;;1.87;100.00;101209.50;5070367;28;20111;-71
2022/03/16 04:44:49;;;;;;;35.80;25.73;;;;;;;1.54;100.00;101211.94;5070833;28;20089;-70
2022/03/16 04:47:15;;;;;;;36.13;25.48;;;;;;;1.65;100.00;101161.31;5069113;28;20048;-70
2022/03/16 04:49:40;;;;;;;37.38;25.08;;;;;;;1.76;100.00;101161.63;5042314;28;20033;-70
2022/03/16 04:52:06;;;;;;;38.75;25.98;;;;;;;1.85;100.00;101189.41;5050605;28;20032;-70
2022/03/16 04:54:31;;;;;;;40.03;27.77;;;;;;;1.36;100.00;101198.91;5051115;28;20036;-71
2022/03/16 04:56:57;;;;;;;46.05;31.17;;;;;;;1.80;100.00;101162.53;5050520;28;20025;-72
2022/03/16 04:59:22;;;;;;;41.30;28.73;;;;;;;1.34;100.00;101151.28;5050537;28;20036;-71
2022/03/16 05:01:48;;;;;;;43.22;30.83;;;;;;;1.52;100.00;101209.41;5050196;28;20053;-71
2022/03/16 05:04:14;;;;;;;49.13;33.35;;;;;;;2.23;100.00;101201.28;5049905;28;20391;-71
2022/03/16 05:06:39;;;;;;;85.25;57.42;;;;;;;2.17;100.00;101190.25;5049920;28;20036;-72
2022/03/16 05:09:04;;;;;;;50.60;34.53;;;;;;;1.98;100.00;101195.59;5050395;28;20055;-68
2022/03/16 05:11:30;;;;;;;44.53;30.77;;;;;;;1.55;100.00;101161.00;5050204;28;20032;-72
2022/03/16 05:13:56;;;;;;;42.38;30.52;;;;;;;1.64;100.00;101169.63;5032451;28;20033;-70
2022/03/16 05:16:22;;;;;;;41.92;30.38;;;;;;;1.36;100.00;101147.16;5050152;28;20079;-70
2022/03/16 05:18:47;;;;;;;46.40;32.45;;;;;;;1.70;100.00;101194.84;5049866;28;20025;-70
2022/03/16 05:21:13;;;;;;;38.88;28.65;;;;;;;1.04;100.00;101160.41;5050243;28;20032;-74
2022/03/16 05:23:40;;;;;;;36.88;26.70;;;;;;;1.75;100.00;101187.47;5051859;28;20475;-70
2022/03/16 05:26:06;;;;;;;36.65;26.95;;;;;;;1.68;100.00;101205.66;5053468;28;20128;-65
2022/03/16 05:28:32;;;;;;;41.22;27.17;;;;;;;1.61;100.00;101181.22;5053810;28;20037;-71
2022/03/16 05:30:57;;;;;;;40.47;28.48;;;;;;;1.10;100.00;101170.59;5053617;28;20025;-71
2022/03/16 05:33:24;;;;;;;47.33;31.08;;;;;;;1.93;100.00;101194.63;5053539;28;20056;-70
2022/03/16 05:35:50;;;;;;;58.53;35.75;;;;;;;1.89;100.00;101198.72;5053385;28;20610;-70
2022/03/16 05:38:16;;;;;;;56.03;36.35;;;;;;;1.56;100.00;101171.09;5053305;28;20045;-70
2022/03/16 05:40:42;;;;;;;53.17;36.90;;;;;;;1.66;100.00;101145.47;5053114;28;20090;-71
2022/03/16 05:43:09;;;;;;;59.33;37.47;;;;;;;1.63;100.00;101155.41;5053703;28;20083;-70
2022/03/16 05:45:34;;;;;;;50.85;35.38;;;;;;;1.16;100.00;101133.22;5053733;28;20067;-74
2022/03/16 05:48:00;;;;;;;49.40;34.42;;;;;;;1.89;100.00;101141.06;5053524;28;20033;-72
2022/03/16 05:50:28;;;;;;;51.22;35.33;;;;;;;1.87;100.00;101156.84;5053521;28;20025;-73
2022/03/16 05:53:03;;;;;;;52.30;38.25;;;;;;;1.80;100.00;101165.03;5053988;28;20074;-73
2022/03/16 05:55:29;;;;;;;52.35;36.10;;;;;;;2.10;100.00;101175.88;5053581;28;20094;-73
2022/03/16 05:57:54;;;;;;;55.25;37.40;;;;;;;1.99;100.00;101174.72;5054111;28;20473;-73
2022/03/16 06:00:21;;;;;;;67.72;45.00;;;;;;;2.17;100.00;101165.16;5052810;28;20021;-73
2022/03/16 06:02:48;;;;;;;88.00;52.72;;;;;;;2.13;100.00;101178.44;5053188;28;20052;-73
2022/03/16 06:05:15;;;;;;;96.10;59.95;;;;;;;1.91;100.00;101151.97;5036061;28;20057;-73
2022/03/16 06:07:41;;;;;;;110.78;63.75;;;;;;;2.30;100.00;101159.63;5053634;28;20025;-74
2022/03/16 06:10:08;;;;;;;124.60;69.43;;;;;;;2.25;100.00;101182.09;5036284;28;20499;-73
2022/03/16 06:12:34;;;;;;;139.75;82.82;;;;;;;2.47;100.00;101184.34;5053901;28;20036;-73
2022/03/16 06:14:59;;;;;;;76.30;48.97;;;;;;;2.00;100.00;101117.09;5053402;28;20029;-73
2022/03/16 06:17:24;;;;;;;75.13;47.00;;;;;;;1.96;100.00;101169.66;5052902;28;20380;-72
2022/03/16 06:19:50;;;;;;;81.97;50.65;;;;;;;1.94;100.00;101173.78;5053146;28;20036;-72
2022/03/16 06:22:15;;;;;;;80.47;53.03;;;;;;;2.26;100.00;101163.72;5053034;28;20077;-72
2022/03/16 06:24:41;;;;;;;84.47;51.50;;;;;;;1.77;100.00;101180.84;5053312;28;20063;-71
2022/03/16 06:27:06;;;;;;;80.82;49.58;;;;;;;1.87;100.00;101187.78;5053336;28;20070;-72
2022/03/16 06:29:32;;;;;;;78.05;50.88;;;;;;;2.04;100.00;101200.78;5035097;28;20048;-72
2022/03/16 06:31:57;;;;;;;70.72;46.63;;;;;;;2.03;100.00;101207.44;5052395;28;20495;-71
2022/03/16 06:34:22;;;;;;;60.67;42.63;;;;;;;1.95;100.00;101170.44;5052656;28;20033;-72
2022/03/16 06:36:48;;;;;;;75.18;47.63;;;;;;;2.11;100.00;101160.00;5052208;28;20117;-72
2022/03/16 06:39:13;;;;;;;71.00;48.00;;;;;;;2.30;100.00;101155.47;5052783;28;20449;-71
2022/03/16 06:41:39;;;;;;;72.85;49.00;;;;;;;2.41;100.00;101175.81;5052879;28;20031;-71
2022/03/16 06:44:05;;;;;;;61.97;41.45;;;;;;;2.83;100.00;101196.91;5034616;28;20017;-72
2022/03/16 06:46:31;;;;;;;64.10;41.28;;;;;;;2.87;100.00;101195.28;5034351;28;20033;-72
2022/03/16 06:48:57;;;;;;;71.55;45.10;;;;;;;2.93;100.00;101191.22;5052651;28;20036;-72
2022/03/16 06:51:22;;;;;;;75.28;47.85;;;;;;;2.72;100.00;101167.31;5034721;28;20013;-72
2022/03/16 06:53:48;;;;;;;87.43;56.63;;;;;;;2.79;100.00;101151.59;5052850;28;20509;-72
2022/03/16 06:56:14;;;;;;;100.90;64.72;;;;;;;2.56;100.00;101115.94;5052307;28;20025;-72
2022/03/16 06:58:39;;;;;;;106.63;70.90;;;;;;;2.78;100.00;101168.31;5052615;28;20094;-72
2022/03/16 07:01:05;;;;;;;110.97;72.25;;;;;;;2.63;100.00;101125.31;5052014;28;20029;-71
2022/03/16 07:03:30;;;;;;;100.60;63.20;;;;;;;2.45;100.00;101114.84;5051838;28;20053;-72
2022/03/16 07:05:56;;;;;;;82.25;54.00;;;;;;;2.34;100.00;101122.13;5052174;28;20063;-72
2022/03/16 07:08:21;;;;;;;77.72;49.33;;;;;;;2.41;100.00;101149.06;5052555;28;20486;-73
2022/03/16 07:10:47;;;;;;;72.93;49.70;;;;;;;2.27;100.00;101095.22;5052180;28;20028;-72
2022/03/16 07:13:13;;;;;;;77.40;49.35;;;;;;;2.69;100.00;101150.53;5052193;28;20029;-73
2022/03/16 07:15:40;;;;;;;86.07;51.75;;;;;;;2.29;100.00;101125.34;5052194;28;20021;-70
2022/03/16 07:18:06;;;;;;;75.80;51.65;;;;;;;3.25;100.00;101147.56;5051657;28;20033;-73
2022/03/16 07:20:32;;;;;;;79.18;52.42;;;;;;;3.25;100.00;101150.06;5052034;28;20051;-72
2022/03/16 07:23:02;;;;;;;78.70;52.80;;;;;;;3.30;100.00;101156.06;5052000;28;20388;-73
2022/03/16 07:25:28;;;;;;;75.15;51.75;;;;;;;3.58;100.00;101133.97;5051767;28;20029;-71
2022/03/16 07:27:53;;;;;;;74.95;51.83;;;;;;;3.12;100.00;101114.63;5051911;28;20040;-72
2022/03/16 07:30:19;;;;;;;72.03;48.72;;;;;;;3.69;100.00;101135.00;5051815;28;20033;-72
2022/03/16 07:32:44;;;;;;;74.47;47.58;;;;;;;3.74;100.00;101135.94;5051946;28;20028;-68
2022/03/16 07:35:10;;;;;;;69.38;47.05;;;;;;;3.59;100.00;101126.44;5052362;28;20090;-73
2022/03/16 07:37:36;;;;;;;68.85;47.33;;;;;;;3.20;100.00;101071.28;5052115;28;20091;-74
2022/03/16 07:40:03;;;;;;;66.07;49.58;;;;;;;3.47;100.00;101076.81;5051869;28;20029;-73
2022/03/16 07:42:30;;;;;;;68.60;45.00;;;;;;;4.00;100.00;101119.66;5034098;28;20435;-73
2022/03/16 07:44:56;;;;;;;72.60;49.33;;;;;;;4.11;100.00;101121.53;5051372;28;20036;-72
2022/03/16 07:47:24;;;;;;;74.63;49.80;;;;;;;4.31;100.00;101107.59;5050778;28;20033;-73
2022/03/16 07:49:50;;;;;;;68.20;47.45;;;;;;;4.16;100.00;101091.41;5051874;28;20483;-73
2022/03/16 07:52:15;;;;;;;60.22;41.97;;;;;;;4.42;100.00;101110.25;5051715;28;20033;-73
2022/03/16 07:54:41;;;;;;;59.95;40.88;;;;;;;4.02;100.00;101075.25;5034030;28;20028;-73
2022/03/16 07:57:07;;;;;;;65.70;42.70;;;;;;;4.06;100.00;101109.69;5051764;28;20060;-72
2022/03/16 07:59:33;;;;;;;65.32;41.80;;;;;;;3.84;100.00;101108.50;5050770;28;20507;-72
2022/03/16 08:01:58;;;;;;;67.93;43.90;;;;;;;4.16;100.00;101111.53;5051023;28;20094;-73
2022/03/16 08:04:24;;;;;;;69.00;42.38;;;;;;;4.37;100.00;101057.34;5051315;28;20079;-73
2022/03/16 08:06:49;;;;;;;77.50;50.92;;;;;;;4.83;100.00;101103.31;5050910;28;20051;-71
2022/03/16 08:09:15;;;;;;;84.72;54.08;;;;;;;4.31;100.00;101089.97;5051383;28;20088;-72
2022/03/16 08:11:40;;;;;;;78.53;49.88;;;;;;;4.91;100.00;101084.91;5051164;28;20079;-72
2022/03/16 08:14:06;;;;;;;99.45;56.70;;;;;;;5.03;100.00;101064.09;5050413;28;20111;-72
2022/03/16 08:16:31;;;;;;;72.70;45.65;;;;;;;4.84;100.00;101088.19;5051097;28;20083;-72
2022/03/16 08:18:57;;;;;;;66.20;43.40;;;;;;;4.88;100.00;101092.44;5051144;28;20029;-72
2022/03/16 08:21:22;;;;;;;58.47;38.80;;;;;;;5.04;100.00;101090.97;5050620;28;20202;-72
2022/03/16 08:23:48;;;;;;;54.53;36.25;;;;;;;5.12;100.00;101092.75;5051085;28;20545;-72
2022/03/16 08:26:13;;;;;;;54.13;37.17;;;;;;;5.52;100.00;101088.16;5050954;28;20035;-72
2022/03/16 08:28:39;;;;;;;52.67;36.15;;;;;;;5.01;100.00;101074.13;5050601;28;20025;-71
2022/03/16 08:31:05;;;;;;;52.92;35.85;;;;;;;4.99;100.00;101088.38;5050998;28;20040;-72
2022/03/16 08:33:31;;;;;;;47.40;33.55;;;;;;;5.28;100.00;101084.56;5050951;28;20067;-72
2022/03/16 08:35:57;;;;;;;48.28;35.00;;;;;;;5.82;100.00;101080.88;5050762;28;20045;-72
2022/03/16 08:38:23;;;;;;;47.83;33.83;;;;;;;5.28;100.00;101061.00;5050749;28;20119;-72
2022/03/16 08:40:48;;;;;;;57.63;35.78;;;;;;;5.34;100.00;101058.56;5050871;28;20053;-72
2022/03/16 08:43:14;;;;;;;68.35;39.08;;;;;;;5.44;100.00;101075.47;5050483;28;20117;-71
2022/03/16 08:45:40;;;;;;;63.50;39.05;;;;;;;6.01;100.00;101075.19;5050389;28;20036;-72
2022/03/16 08:48:05;;;;;;;65.03;39.92;;;;;;;5.63;100.00;101041.16;5050651;28;20390;-71
2022/03/16 08:50:31;;;;;;;161.90;64.95;;;;;;;6.31;100.00;101077.09;5050470;28;20036;-72
2022/03/16 08:52:57;;;;;;;58.50;38.70;;;;;;;5.47;100.00;101062.88;5050792;28;20033;-72
2022/03/16 08:55:23;;;;;;;67.55;41.28;;;;;;;5.94;100.00;101063.38;5050496;28;20098;-72
2022/03/16 08:57:48;;;;;;;68.13;41.42;;;;;;;5.86;100.00;101029.66;5033179;28;20487;-72
2022/03/16 09:00:15;;;;;;;119.78;56.45;;;;;;;6.15;100.00;101061.00;5054341;28;20032;-72
2022/03/16 09:02:42;;;;;;;121.85;54.65;;;;;;;5.85;100.00;101043.09;5036487;28;20053;-72
2022/03/16 09:05:09;;;;;;;62.50;41.25;;;;;;;6.45;100.00;101028.38;5054432;28;20339;-73
2022/03/16 09:07:34;;;;;;;59.42;38.35;;;;;;;6.56;100.00;101056.19;5054679;28;20029;-73
2022/03/16 09:10:02;;;;;;;56.60;39.88;;;;;;;6.77;100.00;101044.53;5054227;28;20025;-72
2022/03/16 09:12:27;;;;;;;58.92;42.17;;;;;;;6.87;100.00;101005.00;5053920;28;20024;-71
2022/03/16 09:14:53;;;;;;;49.42;38.65;;;;;;;6.68;100.00;101031.00;5054749;28;20041;-73
2022/03/16 09:17:20;;;;;;;62.10;41.63;;;;;;;6.16;100.00;101007.13;5054323;28;20049;-72
2022/03/16 09:19:45;;;;;;;68.72;44.33;;;;;;;6.59;100.00;101026.78;5054276;28;20021;-72
2022/03/16 09:22:11;;;;;;;59.45;41.55;;;;;;;6.91;100.00;101025.22;5035946;28;20036;-73
2022/03/16 09:24:39;;;;;;;62.42;42.95;;;;;;;7.12;100.00;101023.59;5053858;28;20064;-72
2022/03/16 09:27:07;;;;;;;58.17;38.97;;;;;;;6.88;100.00;101007.50;5054426;28;20029;-73
2022/03/16 09:29:33;;;;;;;44.78;34.13;;;;;;;6.90;100.00;101023.53;5054213;28;20471;-74
2022/03/16 09:31:59;;;;;;;52.85;35.05;;;;;;;6.07;100.00;100999.53;5053984;28;20107;-72
2022/03/16 09:34:24;;;;;;;61.90;39.88;;;;;;;7.24;100.00;101019.41;5054182;28;20040;-72
2022/03/16 09:36:50;;;;;;;49.20;35.40;;;;;;;6.61;100.00;100989.72;5054064;28;20028;-73
2022/03/16 09:39:16;;;;;;;58.60;38.38;;;;;;;6.89;100.00;101010.91;5053865;28;20059;-73
2022/03/16 09:41:42;;;;;;;43.80;32.10;;;;;;;7.36;100.00;100998.38;5053751;28;20065;-72
2022/03/16 09:44:09;;;;;;;45.70;33.47;;;;;;;7.06;100.00;101005.88;5054275;28;20029;-73
2022/03/16 09:46:36;;;;;;;51.08;33.38;;;;;;;7.35;100.00;100984.03;5053695;28;20063;-73
2022/03/16 09:49:04;;;;;;;60.80;36.58;;;;;;;6.98;100.00;100967.94;5054002;28;20056;-73
2022/03/16 09:51:35;;;;;;;68.53;41.92;;;;;;;7.17;100.00;100974.72;5035981;28;20025;-73
2022/03/16 09:54:03;;;;;;;39.67;26.67;;;;;;;7.01;100.00;100971.31;5053790;28;20061;-72
2022/03/16 09:56:30;;;;;;;38.53;26.02;;;;;;;6.81;100.00;100980.53;5035677;28;20093;-73
2022/03/16 09:58:56;;;;;;;36.92;27.20;;;;;;;7.23;100.00;101009.31;5053545;28;20029;-71
2022/03/16 10:01:21;;;;;;;38.95;28.88;;;;;;;7.09;100.00;100996.59;5053723;28;20025;-72
2022/03/16 10:03:49;;;;;;;38.05;28.88;;;;;;;7.51;100.00;100999.22;5053258;28;20114;-72
2022/03/16 10:06:16;;;;;;;42.38;30.48;;;;;;;7.19;100.00;100965.44;5053067;28;20460;-73
2022/03/16 10:13:13;;;;;;;81.68;46.20;;;;;;;8.02;100.00;100975.59;5053107;28;20099;-71
2022/03/16 10:14:14;;;;;;;36.58;27.90;;;;;;;8.12;100.00;100972.19;5053073;28;20568;-72
2022/03/16 10:19:49;;;;;;;38.45;27.73;;;;;;;7.60;100.00;100947.78;5052733;28;20063;-72
2022/03/16 10:22:26;;;;;;;35.17;27.33;;;;;;;7.82;100.00;100946.94;5053136;28;20078;-72
2022/03/16 10:25:02;;;;;;;36.75;30.33;;;;;;;7.86;100.00;100966.34;5052690;28;20031;-72
2022/03/16 10:27:28;;;;;;;38.80;27.45;;;;;;;8.06;100.00;100961.25;5052828;28;20071;-72
2022/03/16 10:29:54;;;;;;;33.45;25.38;;;;;;;7.76;100.00;100934.28;5052646;28;20475;-72
2022/03/16 10:32:24;;;;;;;32.88;23.30;;;;;;;8.21;100.00;100928.25;5052658;28;21056;-73
2022/03/16 10:34:55;;;;;;;27.52;21.45;;;;;;;7.68;100.00;100928.38;5052712;28;20449;-71
2022/03/16 10:37:23;;;;;;;30.73;22.17;;;;;;;7.21;100.00;100930.06;5052792;28;20029;-69
2022/03/16 10:39:50;;;;;;;25.95;22.88;;;;;;;7.55;100.00;100952.84;5034911;28;20064;-71
2022/03/16 10:47:58;;;;;;;29.30;23.60;;;;;;;7.59;100.00;100920.78;5052558;28;20182;-71
2022/03/16 10:50:23;;;;;;;26.40;20.38;;;;;;;7.79;100.00;100914.00;5034251;28;20060;-69
2022/03/16 10:52:50;;;;;;;23.73;19.15;;;;;;;7.72;100.00;100925.84;5034032;28;20479;-72
2022/03/16 10:55:19;;;;;;;27.98;21.33;;;;;;;7.83;100.00;100923.28;5034414;28;20043;-71
2022/03/16 10:57:48;;;;;;;27.85;22.15;;;;;;;7.74;100.00;100921.59;5052158;28;20021;-72
2022/03/16 11:00:15;;;;;;;24.85;20.70;;;;;;;7.87;100.00;100922.44;5033999;28;20166;-71
2022/03/16 11:02:44;;;;;;;24.35;20.58;;;;;;;7.53;100.00;100916.56;5051777;28;20541;-72
2022/03/16 11:05:10;;;;;;;29.48;21.65;;;;;;;7.70;100.00;100907.31;5051747;28;20039;-71
2022/03/16 11:07:36;;;;;;;25.75;21.17;;;;;;;7.61;100.00;100919.94;5052210;28;20115;-71
2022/03/16 11:10:04;;;;;;;29.98;22.60;;;;;;;7.45;100.00;100917.41;5052291;28;20033;-71
2022/03/16 11:15:18;;;;;;;33.05;23.75;;;;;;;7.90;100.00;100918.22;5052197;28;20118;-72
2022/03/16 11:17:44;;;;;;;28.98;22.42;;;;;;;7.53;100.00;100875.25;5051718;28;20025;-71
2022/03/16 11:20:10;;;;;;;30.48;23.40;;;;;;;7.67;100.00;100914.03;5052017;28;20029;-72
2022/03/16 11:25:32;;;;;;;37.13;25.67;;;;;;;7.75;100.00;100895.47;5051987;28;20128;-71